Time;durP1;ratioP1;P1;durP2;ratioP2;P2;SDS_P1;SDS_P2;PMS_P1;PMS_P2;Temp;Humidity;BMP_temperature;BMP_pressure;BME280_temperature;BME280_humidity;BME280_pressure;Samples;Min_cycle;Max_cycle;Signal;HPM_P1;HPM_P2
2023/01/07 00:01:33;;;;;;;5.50;3.73;;;;;;;3.12;100.00;101090.06;4909867;29;20318;-86
2023/01/07 00:04:01;;;;;;;7.07;3.63;;;;;;;3.07;100.00;101103.03;4904216;29;20048;-82
2023/01/07 00:06:34;;;;;;;4.63;3.03;;;;;;;3.04;100.00;101088.19;4929129;29;20043;-82
2023/01/07 00:09:02;;;;;;;5.43;3.60;;;;;;;3.00;100.00;101096.81;4931625;29;20044;-82
2023/01/07 00:11:32;;;;;;;4.30;2.80;;;;;;;3.02;100.00;101109.88;4937124;28;20118;-83
2023/01/07 00:14:07;;;;;;;4.33;3.03;;;;;;;3.00;100.00;101112.47;4917197;29;20110;-81
2023/01/07 00:16:35;;;;;;;8.47;4.87;;;;;;;3.04;100.00;101098.63;4931175;29;20120;-82
2023/01/07 00:19:04;;;;;;;8.93;5.40;;;;;;;3.06;100.00;101107.38;4927905;29;20043;-82
2023/01/07 00:21:31;;;;;;;8.27;5.17;;;;;;;3.06;100.00;101102.16;4923936;29;20046;-83
2023/01/07 00:24:01;;;;;;;8.73;5.00;;;;;;;3.10;100.00;101113.50;4912945;29;20052;-85
2023/01/07 00:26:33;;;;;;;7.47;4.57;;;;;;;3.10;100.00;101105.66;4932581;29;20062;-81
2023/01/07 00:28:59;;;;;;;9.23;4.70;;;;;;;3.09;100.00;101102.19;4935583;29;20047;-84
2023/01/07 00:31:29;;;;;;;6.03;2.90;;;;;;;3.07;100.00;101100.41;4927297;28;20106;-82
2023/01/07 00:36:28;;;;;;;10.47;3.27;;;;;;;3.08;100.00;101097.81;4924793;29;20047;-81
2023/01/07 00:39:08;;;;;;;3.93;2.60;;;;;;;2.99;100.00;101100.28;4941953;29;20097;-82
2023/01/07 00:41:37;;;;;;;3.53;2.30;;;;;;;3.00;100.00;101106.38;4936021;29;20051;-81
2023/01/07 00:44:05;;;;;;;3.60;2.47;;;;;;;3.01;100.00;101100.28;4921233;29;20068;-83
2023/01/07 00:46:32;;;;;;;3.90;2.53;;;;;;;2.94;100.00;101096.69;4913617;29;20048;-82
2023/01/07 00:49:00;;;;;;;4.27;2.97;;;;;;;2.92;100.00;101090.56;4920857;29;20058;-81
2023/01/07 00:51:27;;;;;;;4.83;3.17;;;;;;;2.88;100.00;101090.53;4915090;29;20841;-81
2023/01/07 00:53:56;;;;;;;6.00;3.03;;;;;;;2.85;100.00;101093.06;4940664;28;20050;-81
2023/01/07 00:56:25;;;;;;;4.57;2.87;;;;;;;2.90;100.00;101099.25;4922092;29;20059;-84
2023/01/07 00:58:51;;;;;;;6.37;3.70;;;;;;;2.87;100.00;101102.69;4895709;29;20107;-82
2023/01/07 01:01:18;;;;;;;6.23;3.93;;;;;;;2.83;100.00;101103.47;4927972;28;20142;-82
2023/01/07 01:03:48;;;;;;;5.77;3.77;;;;;;;2.82;100.00;101093.88;4962284;28;20207;-82
2023/01/07 01:06:15;;;;;;;4.37;3.00;;;;;;;2.79;100.00;101096.44;4905347;29;20427;-84
2023/01/07 01:08:43;;;;;;;5.00;3.87;;;;;;;2.77;100.00;101091.19;4929077;29;20064;-82
2023/01/07 01:11:11;;;;;;;5.97;3.33;;;;;;;2.74;100.00;101093.75;4918853;29;20043;-82
2023/01/07 01:13:42;;;;;;;4.93;2.83;;;;;;;2.72;100.00;101105.88;4912750;29;20044;-82
2023/01/07 01:16:14;;;;;;;4.20;2.87;;;;;;;2.68;100.00;101097.97;4917510;29;20425;-82
2023/01/07 01:18:45;;;;;;;5.83;3.47;;;;;;;2.63;100.00;101100.50;4920408;29;20099;-82
2023/01/07 01:21:14;;;;;;;4.83;3.20;;;;;;;2.66;100.00;101095.34;4938574;28;20094;-82
2023/01/07 01:23:44;;;;;;;6.70;3.60;;;;;;;2.65;100.00;101098.78;4937003;29;20419;-82
2023/01/07 01:26:14;;;;;;;6.03;3.63;;;;;;;2.63;100.00;101090.06;4922734;29;20051;-82
2023/01/07 01:28:46;;;;;;;5.40;3.30;;;;;;;2.62;100.00;101090.06;4908547;29;20046;-82
2023/01/07 01:31:13;;;;;;;6.80;3.53;;;;;;;2.60;100.00;101090.00;4958987;28;20043;-82
2023/01/07 01:33:39;;;;;;;5.13;3.30;;;;;;;2.59;100.00;101089.97;4923628;29;20087;-84
2023/01/07 01:36:09;;;;;;;6.97;3.63;;;;;;;2.58;100.00;101086.47;4898462;29;20448;-82
2023/01/07 01:38:36;;;;;;;7.03;4.17;;;;;;;2.54;100.00;101088.16;4902733;29;20550;-84
2023/01/07 01:41:03;;;;;;;6.77;4.23;;;;;;;2.56;100.00;101096.00;4937975;28;20062;-82
2023/01/07 01:43:41;;;;;;;7.40;3.90;;;;;;;2.57;100.00;101086.47;4907282;29;20098;-83
2023/01/07 01:46:32;;;;;;;7.33;4.50;;;;;;;2.59;100.00;101100.41;4917799;29;20044;-81
2023/01/07 01:49:06;;;;;;;10.83;5.20;;;;;;;2.63;100.00;101095.28;4917594;29;20507;-83
2023/01/07 01:51:38;;;;;;;8.00;4.73;;;;;;;2.64;100.00;101098.78;4914541;29;20043;-82
2023/01/07 01:54:06;;;;;;;9.60;4.83;;;;;;;2.67;100.00;101098.81;4915662;29;20503;-83
2023/01/07 01:56:35;;;;;;;7.10;4.43;;;;;;;2.67;100.00;101091.88;4921636;29;20067;-82
2023/01/07 01:59:14;;;;;;;8.40;5.07;;;;;;;2.67;100.00;101094.47;4902266;29;20055;-82
2023/01/07 02:01:40;;;;;;;7.73;4.33;;;;;;;2.68;100.00;101092.75;4907489;29;20079;-82
2023/01/07 02:04:10;;;;;;;8.83;5.03;;;;;;;2.69;100.00;101089.28;4935842;29;20406;-82
2023/01/07 02:06:54;;;;;;;8.63;4.43;;;;;;;2.68;100.00;101104.06;4921410;29;20043;-82
2023/01/07 02:09:21;;;;;;;8.10;4.63;;;;;;;2.66;100.00;101092.72;4927762;29;20048;-85
2023/01/07 02:11:54;;;;;;;9.67;4.67;;;;;;;2.65;100.00;101087.47;4921443;29;20126;-82
2023/01/07 02:14:46;;;;;;;9.32;5.13;;;;;;;2.63;100.00;101084.84;4905152;29;20044;-82
2023/01/07 02:17:25;;;;;;;9.70;5.20;;;;;;;2.64;100.00;101084.00;4943816;28;20063;-82
2023/01/07 02:20:24;;;;;;;9.77;6.03;;;;;;;2.66;100.00;101082.28;4930579;29;20412;-82
2023/01/07 02:23:05;;;;;;;11.50;6.13;;;;;;;2.64;100.00;101086.59;4936981;29;20047;-82
2023/01/07 02:25:42;;;;;;;11.40;5.73;;;;;;;2.67;100.00;101088.38;4944462;29;20040;-82
2023/01/07 02:28:38;;;;;;;11.43;6.20;;;;;;;2.69;100.00;101084.06;4928526;29;20048;-82
2023/01/07 02:31:28;;;;;;;9.33;5.43;;;;;;;2.69;100.00;101073.63;4905747;29;20056;-82
2023/01/07 02:34:06;;;;;;;10.93;5.97;;;;;;;2.71;100.00;101077.16;4913470;29;20132;-82
2023/01/07 02:36:47;;;;;;;9.23;5.20;;;;;;;2.69;100.00;101069.31;4899822;29;20494;-82
2023/01/07 02:39:31;;;;;;;10.50;5.47;;;;;;;2.70;100.00;101072.81;4928705;29;20071;-82
2023/01/07 02:42:07;;;;;;;14.77;7.50;;;;;;;2.70;100.00;101064.97;4925362;29;20047;-82
2023/01/07 02:44:52;;;;;;;12.30;6.78;;;;;;;2.72;100.00;101063.28;4953164;28;20035;-83
2023/01/07 02:47:28;;;;;;;12.40;6.17;;;;;;;2.72;100.00;101066.75;4917129;29;20091;-82
2023/01/07 02:49:55;;;;;;;10.57;5.73;;;;;;;2.70;100.00;101065.84;4918290;29;20040;-82
2023/01/07 02:52:23;;;;;;;9.93;4.90;;;;;;;2.71;100.00;101064.13;4911690;29;20043;-82
2023/01/07 02:55:02;;;;;;;11.67;5.17;;;;;;;2.73;100.00;101065.03;4923475;28;20039;-84
2023/01/07 02:57:48;;;;;;;9.70;5.20;;;;;;;2.73;100.00;101052.84;4937165;29;20035;-83
2023/01/07 03:00:41;;;;;;;8.97;5.40;;;;;;;2.71;100.00;101057.19;4923621;29;20062;-83
2023/01/07 03:03:32;;;;;;;8.07;4.77;;;;;;;2.71;100.00;101056.31;4915964;29;20067;-82
2023/01/07 03:06:50;;;;;;;10.83;5.23;;;;;;;2.69;100.00;101050.16;4903425;29;20095;-82
2023/01/07 03:09:19;;;;;;;12.03;6.33;;;;;;;2.70;100.00;101054.53;4912795;29;20052;-84
2023/01/07 03:12:14;;;;;;;9.37;4.97;;;;;;;2.69;100.00;101053.66;4905747;29;20764;-83
2023/01/07 03:14:46;;;;;;;10.65;5.50;;;;;;;2.68;100.00;101051.00;4922026;29;20451;-82
2023/01/07 03:17:18;;;;;;;11.27;5.80;;;;;;;2.68;100.00;101058.84;4912545;29;20099;-83
2023/01/07 03:19:49;;;;;;;11.57;5.60;;;;;;;2.66;100.00;101057.94;4926860;29;20104;-83
2023/01/07 03:22:17;;;;;;;14.53;6.43;;;;;;;2.67;100.00;101059.69;4899780;29;20040;-83
2023/01/07 03:24:45;;;;;;;12.23;6.33;;;;;;;2.66;100.00;101055.31;4933063;29;20039;-83
2023/01/07 03:27:13;;;;;;;24.10;10.07;;;;;;;2.63;100.00;101055.28;4933472;29;20043;-82
2023/01/07 03:29:41;;;;;;;37.60;10.07;;;;;;;2.65;100.00;101046.63;4919059;29;20039;-83
2023/01/07 03:32:13;;;;;;;19.70;9.20;;;;;;;2.66;100.00;101045.78;4899479;29;20048;-82
2023/01/07 03:34:41;;;;;;;25.60;11.27;;;;;;;2.67;100.00;101046.66;4927834;29;20040;-83
2023/01/07 03:37:14;;;;;;;17.97;8.00;;;;;;;2.66;100.00;101044.91;4916666;23;20123;-79
2023/01/07 03:39:41;;;;;;;16.77;7.70;;;;;;;2.69;100.00;101048.44;4935310;28;20572;-81
2023/01/07 03:44:55;;;;;;;16.50;9.37;;;;;;;2.69;100.00;101048.44;4927131;29;20062;-83
2023/01/07 03:47:25;;;;;;;14.97;7.63;;;;;;;2.68;100.00;101061.44;4928877;29;20051;-83
2023/01/07 03:49:53;;;;;;;15.23;7.80;;;;;;;2.66;100.00;101053.59;4919259;29;20165;-82
2023/01/07 03:52:19;;;;;;;17.30;7.87;;;;;;;2.64;100.00;101055.31;4915780;29;20538;-83
2023/01/07 03:54:46;;;;;;;17.73;8.00;;;;;;;2.65;100.00;101048.34;4935120;29;20043;-83
2023/01/07 03:57:13;;;;;;;15.97;8.30;;;;;;;2.64;100.00;101047.47;4932719;29;20098;-84
2023/01/07 03:59:39;;;;;;;16.33;8.17;;;;;;;2.65;100.00;101045.75;4913306;29;20463;-83
2023/01/07 04:02:06;;;;;;;16.67;8.37;;;;;;;2.65;100.00;101045.75;4907317;29;20051;-83
2023/01/07 04:04:33;;;;;;;16.07;8.80;;;;;;;2.64;100.00;101050.09;4910350;29;20603;-83
2023/01/07 04:07:00;;;;;;;15.87;9.07;;;;;;;2.66;100.00;101042.28;4928597;29;20042;-83
2023/01/07 04:09:26;;;;;;;16.67;8.13;;;;;;;2.65;100.00;101041.41;4918637;29;20043;-82
2023/01/07 04:11:53;;;;;;;15.20;9.03;;;;;;;2.59;100.00;101035.19;4913981;29;20051;-82
2023/01/07 04:14:20;;;;;;;13.57;7.47;;;;;;;2.53;100.00;101043.81;4933252;29;20047;-82
2023/01/07 04:16:49;;;;;;;16.70;8.87;;;;;;;2.49;100.00;101044.59;4924252;29;20028;-82
2023/01/07 04:19:17;;;;;;;26.00;8.90;;;;;;;2.46;100.00;101035.00;4926249;29;20050;-82
2023/01/07 04:21:43;;;;;;;18.40;9.00;;;;;;;2.44;100.00;101026.25;4920966;29;20070;-81
2023/01/07 04:24:10;;;;;;;19.83;10.07;;;;;;;2.41;100.00;101034.00;4930311;29;20446;-82
2023/01/07 04:26:37;;;;;;;20.90;9.23;;;;;;;2.40;100.00;101026.16;4918000;29;20487;-83
2023/01/07 04:29:03;;;;;;;19.30;8.93;;;;;;;2.35;100.00;101023.47;4917048;29;20093;-82
2023/01/07 04:31:30;;;;;;;16.27;7.80;;;;;;;2.42;100.00;101025.34;4903996;29;20040;-81
2023/01/07 04:33:57;;;;;;;18.33;8.67;;;;;;;2.40;100.00;101027.03;4930371;29;20059;-82
2023/01/07 04:36:23;;;;;;;15.77;8.43;;;;;;;2.29;100.00;101017.28;4933054;29;20042;-82
2023/01/07 04:38:50;;;;;;;14.57;8.03;;;;;;;2.19;100.00;101034.47;4936673;29;20042;-82
2023/01/07 04:41:16;;;;;;;12.17;7.00;;;;;;;2.12;100.00;101023.03;4910157;29;20048;-82
2023/01/07 04:43:43;;;;;;;28.47;10.20;;;;;;;2.07;100.00;101022.06;4922328;29;20067;-82
2023/01/07 04:46:10;;;;;;;16.50;8.33;;;;;;;2.04;100.00;101019.41;4902162;29;20051;-82
2023/01/07 04:48:36;;;;;;;37.87;10.20;;;;;;;2.07;100.00;101005.56;4916246;29;20395;-82
2023/01/07 04:51:03;;;;;;;30.17;9.67;;;;;;;2.07;100.00;100998.59;4904291;29;20132;-83
2023/01/07 04:53:30;;;;;;;17.47;7.57;;;;;;;2.01;100.00;100987.19;4948254;29;20040;-81
2023/01/07 04:55:56;;;;;;;12.57;6.50;;;;;;;2.08;100.00;100979.50;4916123;29;20303;-82
2023/01/07 04:58:23;;;;;;;13.67;6.60;;;;;;;2.00;100.00;100977.59;4930406;29;20534;-82
2023/01/07 05:00:52;;;;;;;13.80;7.27;;;;;;;1.97;100.00;100983.66;4905495;29;20577;-82
2023/01/07 05:03:19;;;;;;;14.23;7.50;;;;;;;1.92;100.00;100993.97;4919414;29;20439;-82
2023/01/07 05:05:46;;;;;;;13.07;6.37;;;;;;;1.89;100.00;100995.66;4942961;29;20419;-82
2023/01/07 05:08:13;;;;;;;15.97;7.60;;;;;;;1.86;100.00;101003.41;4909381;29;20057;-81
2023/01/07 05:10:39;;;;;;;11.83;7.17;;;;;;;1.83;100.00;101004.19;4903061;29;20040;-82
2023/01/07 05:13:06;;;;;;;17.63;7.60;;;;;;;1.82;100.00;101009.38;4910409;29;20048;-83
2023/01/07 05:15:33;;;;;;;12.13;6.50;;;;;;;1.80;100.00;101005.88;4908597;29;20527;-81
2023/01/07 05:17:59;;;;;;;14.23;5.77;;;;;;;1.81;100.00;101003.31;4947532;29;20035;-81
2023/01/07 05:20:26;;;;;;;12.03;6.50;;;;;;;1.86;100.00;101006.88;4932328;29;20044;-83
2023/01/07 05:22:53;;;;;;;10.80;6.10;;;;;;;1.90;100.00;101010.44;4912239;29;20048;-81
2023/01/07 05:25:19;;;;;;;11.53;6.20;;;;;;;1.96;100.00;101001.00;4899555;29;20050;-81
2023/01/07 05:27:46;;;;;;;9.33;5.33;;;;;;;1.98;100.00;101001.91;4933908;29;20028;-81
2023/01/07 05:30:13;;;;;;;13.83;6.73;;;;;;;2.04;100.00;100997.69;4905396;29;20063;-81
2023/01/07 05:32:39;;;;;;;14.77;6.50;;;;;;;2.14;100.00;101003.09;4900173;29;20067;-82
2023/01/07 05:35:06;;;;;;;12.13;5.47;;;;;;;2.12;100.00;101002.19;4930270;29;20036;-82
2023/01/07 05:37:33;;;;;;;11.57;6.27;;;;;;;2.15;100.00;100999.63;4905855;29;20052;-81
2023/01/07 05:40:00;;;;;;;11.23;5.67;;;;;;;2.19;100.00;100993.66;4931278;29;20051;-81
2023/01/07 05:42:26;;;;;;;14.33;6.50;;;;;;;2.25;100.00;100995.47;4902856;29;20484;-81
2023/01/07 05:44:53;;;;;;;10.17;5.13;;;;;;;2.26;100.00;101003.31;4926363;29;20377;-82
2023/01/07 05:47:20;;;;;;;11.60;6.57;;;;;;;2.34;100.00;100997.38;4916816;29;20036;-81
2023/01/07 05:49:46;;;;;;;14.03;7.13;;;;;;;2.34;100.00;100999.97;4916246;29;20047;-82
2023/01/07 05:52:13;;;;;;;12.87;7.30;;;;;;;2.38;100.00;100994.84;4934936;29;20103;-82
2023/01/07 05:54:39;;;;;;;12.63;6.67;;;;;;;2.42;100.00;100995.78;4899737;29;20039;-82
2023/01/07 05:57:06;;;;;;;10.67;5.53;;;;;;;2.40;100.00;100981.84;4934490;29;20036;-82
2023/01/07 05:59:34;;;;;;;11.73;6.13;;;;;;;2.43;100.00;100987.09;4917289;29;20052;-81
2023/01/07 06:02:00;;;;;;;16.77;7.10;;;;;;;2.45;100.00;100982.81;4912575;29;20125;-83
2023/01/07 06:04:27;;;;;;;13.77;7.30;;;;;;;2.46;100.00;100976.75;4917391;29;20071;-82
2023/01/07 06:06:54;;;;;;;12.53;7.07;;;;;;;2.49;100.00;100976.78;4907107;29;20624;-82
2023/01/07 06:09:21;;;;;;;13.13;6.33;;;;;;;2.51;100.00;100981.16;4917921;29;20074;-83
2023/01/07 06:11:48;;;;;;;11.97;6.67;;;;;;;2.56;100.00;100980.38;4931028;29;20427;-83
2023/01/07 06:14:14;;;;;;;15.13;7.17;;;;;;;2.63;100.00;100977.91;4908962;29;20099;-82
2023/01/07 06:16:41;;;;;;;12.93;6.93;;;;;;;2.63;100.00;100982.25;4932989;29;20047;-81
2023/01/07 06:19:07;;;;;;;15.07;7.60;;;;;;;2.71;100.00;100978.03;4912422;29;20052;-82
2023/01/07 06:21:34;;;;;;;12.80;5.97;;;;;;;2.69;100.00;100982.31;4917246;29;20051;-81
2023/01/07 06:24:01;;;;;;;13.50;6.77;;;;;;;2.78;100.00;100978.16;4934688;29;20075;-82
2023/01/07 06:26:27;;;;;;;12.50;7.37;;;;;;;2.73;100.00;100982.41;4925343;29;20067;-81
2023/01/07 06:28:54;;;;;;;14.07;7.27;;;;;;;2.77;100.00;100983.34;4912612;29;20039;-81
2023/01/07 06:31:20;;;;;;;14.73;6.60;;;;;;;2.77;100.00;100981.59;4933928;29;20103;-83
2023/01/07 06:33:47;;;;;;;15.33;7.20;;;;;;;2.79;100.00;100985.13;4932657;29;20135;-82
2023/01/07 06:36:14;;;;;;;15.40;7.30;;;;;;;2.79;100.00;100987.75;4910365;29;20195;-82
2023/01/07 06:38:40;;;;;;;13.83;7.43;;;;;;;2.91;100.00;100986.19;4934133;29;20039;-83
2023/01/07 06:41:08;;;;;;;12.50;7.03;;;;;;;2.93;100.00;100992.28;4931429;29;20043;-83
2023/01/07 06:43:34;;;;;;;14.10;7.30;;;;;;;2.95;100.00;100991.47;4932902;29;20100;-82
2023/01/07 06:46:01;;;;;;;14.70;7.60;;;;;;;3.01;100.00;100988.94;4917241;29;20043;-83
2023/01/07 06:48:28;;;;;;;14.47;7.07;;;;;;;3.03;100.00;100992.47;4914945;29;20127;-82
2023/01/07 06:50:54;;;;;;;12.30;6.90;;;;;;;3.07;100.00;100989.03;4919151;29;20419;-83
2023/01/07 06:53:21;;;;;;;13.83;7.20;;;;;;;3.13;100.00;100997.84;4916508;29;20048;-82
2023/01/07 06:55:49;;;;;;;13.33;6.50;;;;;;;3.16;100.00;100998.75;4915748;29;20043;-82
2023/01/07 06:58:16;;;;;;;12.30;6.47;;;;;;;3.18;100.00;100999.63;4907712;29;20035;-82
2023/01/07 07:00:42;;;;;;;14.73;7.57;;;;;;;3.24;100.00;101007.56;4933982;29;20605;-82
2023/01/07 07:03:09;;;;;;;21.07;9.27;;;;;;;3.31;100.00;101003.31;4900423;29;20055;-83
2023/01/07 07:05:36;;;;;;;15.57;8.33;;;;;;;3.37;100.00;101000.81;4933433;29;20047;-82
2023/01/07 07:08:03;;;;;;;18.83;8.53;;;;;;;3.42;100.00;100991.28;4905040;29;20040;-82
2023/01/07 07:10:30;;;;;;;18.77;8.43;;;;;;;3.49;100.00;101000.09;4911670;29;20051;-81
2023/01/07 07:12:57;;;;;;;16.73;8.27;;;;;;;3.52;100.00;100998.38;4923918;29;20147;-82
2023/01/07 07:15:24;;;;;;;15.37;7.80;;;;;;;3.54;100.00;100993.22;4931148;29;20048;-82
2023/01/07 07:17:51;;;;;;;12.83;7.30;;;;;;;3.58;100.00;100995.88;4888061;29;20048;-82
2023/01/07 07:20:17;;;;;;;15.60;6.97;;;;;;;3.60;100.00;100996.75;4934785;29;20051;-82
2023/01/07 07:22:45;;;;;;;15.67;8.20;;;;;;;3.67;100.00;101000.31;4918408;29;20040;-81
2023/01/07 07:25:13;;;;;;;13.00;7.03;;;;;;;3.67;100.00;101002.94;4933643;29;20510;-82
2023/01/07 07:27:40;;;;;;;14.37;7.07;;;;;;;3.69;100.00;101003.84;4913399;29;20547;-82
2023/01/07 07:30:07;;;;;;;15.33;7.70;;;;;;;3.71;100.00;101001.25;4909129;29;20043;-80
2023/01/07 07:32:33;;;;;;;14.67;7.50;;;;;;;3.78;100.00;100996.09;4907331;29;20044;-80
2023/01/07 07:35:00;;;;;;;16.80;8.00;;;;;;;3.79;100.00;100994.41;4932165;29;20458;-81
2023/01/07 07:37:27;;;;;;;16.73;7.93;;;;;;;3.81;100.00;101000.53;4901760;29;20040;-80
2023/01/07 07:39:53;;;;;;;18.50;9.07;;;;;;;3.87;100.00;101003.22;4933107;29;20091;-80
2023/01/07 07:42:20;;;;;;;18.83;10.13;;;;;;;3.92;100.00;101007.63;4917004;29;20080;-81
2023/01/07 07:44:47;;;;;;;15.40;7.70;;;;;;;3.93;100.00;101006.75;4931298;29;20110;-81
2023/01/07 07:47:13;;;;;;;20.63;9.73;;;;;;;4.00;100.00;101004.22;4921777;29;20050;-81
2023/01/07 07:49:40;;;;;;;23.63;10.80;;;;;;;4.07;100.00;101008.66;4920096;29;20044;-80
2023/01/07 07:52:07;;;;;;;22.73;10.53;;;;;;;4.10;100.00;101004.34;4904873;29;20060;-81
2023/01/07 07:54:34;;;;;;;27.77;11.83;;;;;;;4.14;100.00;101000.03;4926026;29;20459;-81
2023/01/07 07:57:02;;;;;;;19.80;9.17;;;;;;;4.18;100.00;100993.97;4919545;29;20410;-81
2023/01/07 07:59:29;;;;;;;26.17;11.63;;;;;;;4.30;100.00;101006.31;4911207;29;20047;-81
2023/01/07 08:01:56;;;;;;;25.60;12.70;;;;;;;4.32;100.00;100996.75;4932599;29;20048;-81
2023/01/07 08:04:22;;;;;;;27.93;12.27;;;;;;;4.38;100.00;100995.06;4902704;29;20052;-81
2023/01/07 08:06:49;;;;;;;22.37;10.73;;;;;;;4.40;100.00;100998.56;4910282;29;20459;-81
2023/01/07 08:09:16;;;;;;;23.33;12.03;;;;;;;4.41;100.00;100992.47;4927814;29;20503;-81
2023/01/07 08:11:42;;;;;;;26.30;11.43;;;;;;;4.47;100.00;100995.16;4914037;29;20043;-81
2023/01/07 08:14:09;;;;;;;22.30;10.77;;;;;;;4.49;100.00;100982.09;4926019;29;20098;-80
2023/01/07 08:16:36;;;;;;;27.10;10.83;;;;;;;4.50;100.00;100981.22;4929954;29;20054;-81
2023/01/07 08:19:03;;;;;;;26.63;10.83;;;;;;;4.56;100.00;100989.13;4906471;29;20467;-80
2023/01/07 08:21:29;;;;;;;27.63;11.47;;;;;;;4.59;100.00;100993.50;4917048;29;20051;-82
2023/01/07 08:23:56;;;;;;;26.50;11.77;;;;;;;4.62;100.00;100991.78;4906288;29;20040;-80
2023/01/07 08:26:23;;;;;;;26.03;11.47;;;;;;;4.67;100.00;100989.22;4909936;29;20044;-80
2023/01/07 08:28:50;;;;;;;26.17;13.07;;;;;;;4.73;100.00;100986.66;4929203;29;20051;-81
2023/01/07 08:31:16;;;;;;;23.10;10.37;;;;;;;4.75;100.00;100984.94;4901472;29;20507;-81
2023/01/07 08:33:43;;;;;;;21.47;10.87;;;;;;;4.74;100.00;100988.41;4928826;29;20484;-81
2023/01/07 08:36:10;;;;;;;22.20;11.67;;;;;;;4.79;100.00;100991.94;4926854;29;20039;-80
2023/01/07 08:38:50;;;;;;;23.10;11.77;;;;;;;4.84;100.00;100990.25;4915326;29;20044;-81
2023/01/07 08:41:18;;;;;;;26.13;13.63;;;;;;;4.92;100.00;100987.69;4903082;29;20072;-81
2023/01/07 08:43:45;;;;;;;31.73;15.20;;;;;;;5.02;100.00;100981.66;4924547;29;20044;-81
2023/01/07 08:46:11;;;;;;;29.93;15.30;;;;;;;5.13;100.00;100984.34;4897836;29;20115;-81
2023/01/07 08:48:39;;;;;;;29.07;15.27;;;;;;;5.34;100.00;100982.75;4920080;29;20036;-81
2023/01/07 08:51:06;;;;;;;35.80;16.63;;;;;;;5.43;100.00;100981.03;4913065;29;20126;-81
2023/01/07 08:53:33;;;;;;;37.70;19.37;;;;;;;5.48;100.00;100982.81;4940625;29;20614;-82
2023/01/07 08:55:59;;;;;;;33.73;16.37;;;;;;;5.62;100.00;100982.88;4924532;29;20061;-81
2023/01/07 08:58:26;;;;;;;31.77;14.90;;;;;;;5.62;100.00;100988.13;4934988;29;20047;-81
2023/01/07 09:00:53;;;;;;;31.63;14.93;;;;;;;5.65;100.00;100981.16;4931213;29;20044;-81
2023/01/07 09:03:20;;;;;;;37.70;16.17;;;;;;;5.76;100.00;100980.34;4919115;29;20111;-81
2023/01/07 09:05:46;;;;;;;39.63;19.53;;;;;;;5.89;100.00;100975.16;4910938;29;20108;-80
2023/01/07 09:08:13;;;;;;;37.63;17.93;;;;;;;5.93;100.00;100969.06;4931624;29;20395;-81
2023/01/07 09:10:40;;;;;;;33.83;18.37;;;;;;;6.04;100.00;100965.59;4931275;29;20091;-81
2023/01/07 09:13:06;;;;;;;38.67;19.30;;;;;;;6.12;100.00;100963.88;4920125;29;20052;-83
2023/01/07 09:15:33;;;;;;;36.43;18.67;;;;;;;6.24;100.00;100966.53;4909911;29;20054;-82
2023/01/07 09:18:02;;;;;;;32.30;17.73;;;;;;;6.25;100.00;100957.78;4923972;29;20047;-83
2023/01/07 09:20:29;;;;;;;33.37;16.53;;;;;;;6.29;100.00;100949.03;4905416;29;20087;-83
2023/01/07 09:22:56;;;;;;;36.07;17.97;;;;;;;6.32;100.00;100956.94;4923374;29;20047;-82
2023/01/07 09:25:22;;;;;;;30.93;17.80;;;;;;;6.34;100.00;100956.94;4914464;29;20040;-83
2023/01/07 09:27:49;;;;;;;35.87;18.33;;;;;;;6.45;100.00;100956.06;4933628;29;20380;-82
2023/01/07 09:30:16;;;;;;;36.20;19.37;;;;;;;6.52;100.00;100961.31;4930481;29;20052;-83
2023/01/07 09:32:43;;;;;;;38.83;19.30;;;;;;;6.56;100.00;100950.84;4914777;29;20043;-83
2023/01/07 09:35:10;;;;;;;32.90;18.10;;;;;;;6.63;100.00;100957.81;4931421;29;20043;-82
2023/01/07 09:37:37;;;;;;;32.77;17.17;;;;;;;6.65;100.00;100955.22;4907150;29;20043;-82
2023/01/07 09:40:05;;;;;;;35.90;17.20;;;;;;;6.72;100.00;100955.19;4937750;29;20035;-83
2023/01/07 09:42:59;;;;;;;34.83;17.07;;;;;;;6.67;100.00;100950.84;4934685;29;20047;-82
2023/01/07 09:45:29;;;;;;;29.83;16.52;;;;;;;6.62;100.00;100952.56;4916147;29;20055;-82
2023/01/07 09:47:57;;;;;;;30.83;16.20;;;;;;;6.65;100.00;100953.47;4900872;29;20039;-83
2023/01/07 09:50:33;;;;;;;29.93;16.10;;;;;;;6.69;100.00;100954.34;4899570;29;20052;-82
2023/01/07 09:53:06;;;;;;;26.50;14.53;;;;;;;6.66;100.00;100951.72;4915046;29;20051;-81
2023/01/07 09:55:38;;;;;;;27.03;14.43;;;;;;;6.68;100.00;100942.97;4918008;29;20138;-81
2023/01/07 09:58:24;;;;;;;28.80;17.03;;;;;;;6.74;100.00;100950.84;4919713;29;20124;-81
2023/01/07 10:01:16;;;;;;;34.73;17.00;;;;;;;6.87;100.00;100937.69;4899851;29;20059;-81
2023/01/07 10:03:56;;;;;;;27.33;15.23;;;;;;;6.83;100.00;100936.84;4899494;29;20418;-80
2023/01/07 10:06:39;;;;;;;29.10;15.97;;;;;;;6.91;100.00;100936.81;4923755;29;20154;-82
2023/01/07 10:09:37;;;;;;;25.83;14.90;;;;;;;6.98;100.00;100938.56;4923053;29;20406;-81
2023/01/07 10:12:19;;;;;;;35.10;18.13;;;;;;;7.19;100.00;100935.03;4932269;29;20094;-81
2023/01/07 10:15:25;;;;;;;36.90;19.57;;;;;;;7.38;100.00;100934.06;4931672;29;20111;-80
2023/01/07 10:18:20;;;;;;;28.97;15.10;;;;;;;7.52;100.00;100923.53;4950019;28;20047;-80
2023/01/07 10:21:28;;;;;;;23.88;12.65;;;;;;;7.61;100.00;100926.13;4923953;29;20090;-81
2023/01/07 10:24:03;;;;;;;24.57;12.23;;;;;;;7.64;100.00;100915.56;4925302;29;20480;-81
2023/01/07 10:26:46;;;;;;;22.30;12.30;;;;;;;7.63;100.00;100905.94;4917007;29;20044;-81
2023/01/07 10:29:17;;;;;;;24.17;12.47;;;;;;;7.69;100.00;100910.31;4943904;29;20044;-80
2023/01/07 10:31:44;;;;;;;20.27;12.03;;;;;;;7.66;100.00;100912.97;4901031;29;20040;-80
2023/01/07 10:34:52;;;;;;;21.83;12.30;;;;;;;7.71;100.00;100917.31;4924109;29;20068;-81
2023/01/07 10:37:29;;;;;;;19.57;10.97;;;;;;;7.84;100.00;100911.13;4849710;29;20540;-82
2023/01/07 10:40:11;;;;;;;18.47;11.57;;;;;;;7.90;100.00;100910.19;4874954;29;20041;-82
2023/01/07 10:42:49;;;;;;;22.27;12.57;;;;;;;7.86;100.00;100916.34;4883150;29;20054;-82
2023/01/07 10:45:23;;;;;;;19.57;11.47;;;;;;;7.76;100.00;100914.66;4917468;29;20137;-81
2023/01/07 10:48:04;;;;;;;;;;;;;;;7.67;100.00;100912.94;4904174;29;20044;-81
2023/01/07 10:50:36;;;;;;;20.23;11.00;;;;;;;7.66;100.00;100903.31;4914915;29;19923;-81
2023/01/07 10:53:06;;;;;;;24.93;12.87;;;;;;;7.65;100.00;100901.56;4930953;29;20036;-79
2023/01/07 10:55:50;;;;;;;20.97;12.00;;;;;;;7.65;100.00;100898.94;4923354;29;20052;-81
2023/01/07 10:58:17;;;;;;;21.27;12.87;;;;;;;7.71;100.00;100896.25;4932109;29;20058;-80
2023/01/07 11:00:47;;;;;;;19.87;11.70;;;;;;;7.70;100.00;100889.25;4905965;29;20047;-81
2023/01/07 11:03:19;;;;;;;20.70;11.83;;;;;;;7.69;100.00;100892.78;4907538;29;20066;-82
2023/01/07 11:05:49;;;;;;;22.60;13.53;;;;;;;7.76;100.00;100883.09;4933054;29;20087;-80
2023/01/07 11:08:26;;;;;;;18.77;11.20;;;;;;;7.83;100.00;100884.81;4923914;29;20104;-78
2023/01/07 11:10:53;;;;;;;19.87;12.00;;;;;;;7.84;100.00;100879.53;4925269;29;20048;-80
2023/01/07 11:13:23;;;;;;;19.60;11.13;;;;;;;7.92;100.00;100884.78;4933693;29;20048;-80
2023/01/07 11:15:55;;;;;;;20.23;11.87;;;;;;;7.97;100.00;100877.69;4943478;29;20039;-78
2023/01/07 11:18:35;;;;;;;17.60;10.50;;;;;;;8.17;100.00;100869.69;4920003;29;20055;-80
2023/01/07 11:21:02;;;;;;;16.63;10.67;;;;;;;8.24;100.00;100859.97;4921860;29;20106;-80
2023/01/07 11:23:39;;;;;;;18.17;11.60;;;;;;;8.30;100.00;100866.06;4934811;29;20051;-78
2023/01/07 11:26:11;;;;;;;15.70;10.33;;;;;;;8.35;100.00;100860.81;4923358;29;20040;-80
2023/01/07 11:28:51;;;;;;;16.70;10.17;;;;;;;8.44;100.00;100855.47;4938084;29;20070;-80
2023/01/07 11:31:19;;;;;;;16.90;10.80;;;;;;;8.41;100.00;100845.84;4931651;28;20043;-80
2023/01/07 11:33:49;;;;;;;25.43;12.63;;;;;;;8.36;100.00;100858.16;4921810;29;20138;-80
2023/01/07 11:36:40;;;;;;;15.32;11.02;;;;;;;8.34;100.00;100854.63;4932591;29;20100;-80
2023/01/07 11:39:17;;;;;;;12.50;8.40;;;;;;;8.36;100.00;100852.91;4934165;29;20051;-80